createdAt,value
2023-02-26T00:01:41.286Z,99660.00
2023-02-26T00:04:09.424Z,99669.00
2023-02-26T00:06:51.780Z,99672.00
2023-02-26T00:09:19.391Z,99671.00
2023-02-26T00:11:47.720Z,99675.00
2023-02-26T00:14:16.309Z,99676.00
2023-02-26T00:16:47.779Z,99677.00
2023-02-26T00:19:15.592Z,99680.00
2023-02-26T00:21:43.298Z,99692.00
2023-02-26T00:24:10.563Z,99682.00
2023-02-26T00:26:37.775Z,99699.00
2023-02-26T00:29:05.589Z,99692.00
2023-02-26T00:31:33.557Z,99693.00
2023-02-26T00:34:02.610Z,99699.00
2023-02-26T00:36:38.770Z,99699.00
2023-02-26T00:39:12.550Z,99711.00
2023-02-26T00:41:40.398Z,99711.00
2023-02-26T00:44:08.283Z,99701.00
2023-02-26T00:46:43.275Z,99704.00
2023-02-26T00:49:22.899Z,99714.00
2023-02-26T00:51:55.246Z,99708.00
2023-02-26T00:54:24.134Z,99715.00
2023-02-26T00:56:52.805Z,99706.00
2023-02-26T00:59:20.989Z,99716.00
2023-02-26T01:01:48.884Z,99717.00
2023-02-26T01:04:19.445Z,99716.00
2023-02-26T01:06:49.760Z,99721.00
2023-02-26T01:09:24.823Z,99716.00
2023-02-26T01:11:53.255Z,99717.00
2023-02-26T01:14:21.703Z,99716.00
2023-02-26T01:16:56.302Z,99721.00
2023-02-26T01:19:34.552Z,99712.00
2023-02-26T01:22:09.557Z,99711.00
2023-02-26T01:24:37.422Z,99714.00
2023-02-26T01:27:05.301Z,99723.00
2023-02-26T01:29:33.160Z,99724.00
2023-02-26T01:32:06.731Z,99733.00
2023-02-26T01:34:40.150Z,99731.00
2023-02-26T01:37:18.993Z,99731.00
2023-02-26T01:39:52.311Z,99731.00
2023-02-26T01:42:23.241Z,99731.00
2023-02-26T01:44:59.126Z,99730.00
2023-02-26T01:47:35.773Z,99735.00
2023-02-26T01:50:13.787Z,99735.00
2023-02-26T01:53:10.699Z,99738.00
2023-02-26T01:55:38.230Z,99743.00
2023-02-26T01:58:05.555Z,99755.00
2023-02-26T02:00:32.925Z,99764.00
2023-02-26T02:03:00.461Z,99763.00
2023-02-26T02:05:32.641Z,99770.00
2023-02-26T02:08:01.124Z,99773.00
2023-02-26T02:10:28.916Z,99772.00
2023-02-26T02:13:03.099Z,99770.00
2023-02-26T02:15:38.405Z,99766.00
2023-02-26T02:18:12.125Z,99772.00
2023-02-26T02:21:06.840Z,99771.00
2023-02-26T02:23:39.878Z,99783.00
2023-02-26T02:26:25.439Z,99786.00
2023-02-26T02:29:18.634Z,99792.00
2023-02-26T02:31:53.622Z,99803.00
2023-02-26T02:34:26.240Z,99792.00
2023-02-26T02:36:58.465Z,99797.00
2023-02-26T02:39:28.825Z,99803.00
2023-02-26T02:41:58.973Z,99811.00
2023-02-26T02:44:28.276Z,99804.00
2023-02-26T02:46:58.671Z,99812.00
2023-02-26T02:49:31.158Z,99819.00
2023-02-26T02:52:05.728Z,99828.00
2023-02-26T02:54:38.261Z,99829.00
2023-02-26T02:57:09.552Z,99843.00
2023-02-26T02:59:42.134Z,99842.00
2023-02-26T03:02:15.197Z,99834.00
2023-02-26T03:04:43.460Z,99838.00
2023-02-26T03:07:11.019Z,99847.00
2023-02-26T03:09:38.535Z,99844.00
2023-02-26T03:12:06.053Z,99850.00
2023-02-26T03:14:33.879Z,99857.00
2023-02-26T03:17:18.789Z,99855.00
2023-02-26T03:19:56.681Z,99867.00
2023-02-26T03:22:34.799Z,99867.00
2023-02-26T03:25:08.697Z,99866.00
2023-02-26T03:27:40.887Z,99872.00
2023-02-26T03:30:15.263Z,99865.00
2023-02-26T03:32:50.923Z,99889.00
2023-02-26T03:35:26.098Z,99893.00
2023-02-26T03:37:57.914Z,99890.00
2023-02-26T03:40:29.696Z,99893.00
2023-02-26T03:43:01.467Z,99901.00
2023-02-26T03:45:32.664Z,99898.00
2023-02-26T03:48:02.507Z,99907.00
2023-02-26T03:50:33.424Z,99918.00
2023-02-26T03:53:03.148Z,99924.00
2023-02-26T03:55:35.871Z,99923.00
2023-02-26T03:58:03.534Z,99930.00
2023-02-26T04:00:33.665Z,99934.00
2023-02-26T04:03:07.725Z,99935.00
2023-02-26T04:05:38.702Z,99935.00
2023-02-26T04:08:06.211Z,99950.00
2023-02-26T04:10:37.821Z,99944.00
2023-02-26T04:13:05.433Z,99953.00
2023-02-26T04:15:32.762Z,99952.00
2023-02-26T04:18:00.724Z,99947.00
2023-02-26T04:20:28.046Z,99957.00
2023-02-26T04:22:55.383Z,99961.00
2023-02-26T04:25:22.848Z,99967.00
2023-02-26T04:27:50.077Z,99961.00
2023-02-26T04:30:17.734Z,99969.00
2023-02-26T04:32:45.015Z,99967.00
2023-02-26T04:35:13.714Z,99974.00
2023-02-26T04:37:40.995Z,99975.00
2023-02-26T04:40:09.426Z,99988.00
2023-02-26T04:42:36.824Z,99975.00
2023-02-26T04:45:04.787Z,99982.00
2023-02-26T04:47:31.995Z,99992.00
2023-02-26T04:49:59.311Z,100002.00
2023-02-26T04:52:27.361Z,99997.00
2023-02-26T04:54:54.675Z,99999.00
2023-02-26T04:57:21.948Z,100017.00
2023-02-26T04:59:49.225Z,99995.00
2023-02-26T05:02:16.505Z,100007.00
2023-02-26T05:04:43.832Z,100005.00
2023-02-26T05:07:11.472Z,100010.00
2023-02-26T05:09:39.390Z,100011.00
2023-02-26T05:12:06.748Z,100020.00
2023-02-26T05:14:34.010Z,100018.00
2023-02-26T05:17:01.278Z,100025.00
2023-02-26T05:19:28.527Z,100024.00
2023-02-26T05:21:55.793Z,100022.00
2023-02-26T05:24:23.158Z,100028.00
2023-02-26T05:26:51.157Z,100039.00
2023-02-26T05:29:18.772Z,100045.00
2023-02-26T05:31:46.104Z,100048.00
2023-02-26T05:34:13.443Z,100058.00
2023-02-26T05:36:40.728Z,100063.00
2023-02-26T05:39:09.127Z,100056.00
2023-02-26T05:41:36.373Z,100058.00
2023-02-26T05:44:04.328Z,100067.00
2023-02-26T05:46:31.591Z,100075.00
2023-02-26T05:48:58.907Z,100081.00
2023-02-26T05:51:26.155Z,100080.00
2023-02-26T05:53:53.388Z,100089.00
2023-02-26T05:56:20.642Z,100090.00
2023-02-26T05:58:47.923Z,100090.00
2023-02-26T06:01:16.141Z,100101.00
2023-02-26T06:03:43.793Z,100095.00
2023-02-26T06:06:11.473Z,100112.00
2023-02-26T06:08:38.731Z,100105.00
2023-02-26T06:11:06.290Z,100114.00
2023-02-26T06:13:33.526Z,100116.00
2023-02-26T06:16:00.843Z,100126.00
2023-02-26T06:18:28.759Z,100134.00
2023-02-26T06:20:55.994Z,100129.00
2023-02-26T06:23:23.308Z,100136.00
2023-02-26T06:25:51.744Z,100147.00
2023-02-26T06:28:19.220Z,100149.00
2023-02-26T06:30:46.727Z,100147.00
2023-02-26T06:33:14.070Z,100156.00
2023-02-26T06:35:42.042Z,100159.00
2023-02-26T06:38:09.290Z,100164.00
2023-02-26T06:40:36.733Z,100159.00
2023-02-26T06:43:04.134Z,100174.00
2023-02-26T06:45:31.435Z,100166.00
2023-02-26T06:47:58.689Z,100177.00
2023-02-26T06:50:25.917Z,100188.00
2023-02-26T06:52:53.838Z,100185.00
2023-02-26T06:55:26.073Z,100194.00
2023-02-26T06:57:53.781Z,100194.00
2023-02-26T07:00:22.264Z,100200.00
2023-02-26T07:02:49.617Z,100209.00
2023-02-26T07:05:17.407Z,100208.00
2023-02-26T07:07:44.635Z,100208.00
2023-02-26T07:10:13.561Z,100215.00
2023-02-26T07:12:40.804Z,100210.00
2023-02-26T07:15:09.002Z,100219.00
2023-02-26T07:17:36.258Z,100222.00
2023-02-26T07:20:05.871Z,100224.00
2023-02-26T07:22:33.335Z,100230.00
2023-02-26T07:25:00.556Z,100227.00
2023-02-26T07:27:29.256Z,100238.00
2023-02-26T07:29:56.507Z,100233.00
2023-02-26T07:32:23.767Z,100246.00
2023-02-26T07:34:51.176Z,100254.00
2023-02-26T07:37:18.655Z,100251.00
2023-02-26T07:39:45.925Z,100246.00
2023-02-26T07:42:13.175Z,100258.00
2023-02-26T07:44:41.232Z,100263.00
2023-02-26T07:47:08.702Z,100263.00
2023-02-26T07:49:36.034Z,100274.00
2023-02-26T07:52:03.484Z,100282.00
2023-02-26T07:54:30.934Z,100287.00
2023-02-26T07:56:58.201Z,100284.00
2023-02-26T07:59:25.544Z,100285.00
2023-02-26T08:01:53.519Z,100291.00
2023-02-26T08:04:20.864Z,100299.00
2023-02-26T08:06:48.163Z,100303.00
2023-02-26T08:09:15.438Z,100312.00
2023-02-26T08:11:42.722Z,100306.00
2023-02-26T08:14:11.224Z,100306.00
2023-02-26T08:16:38.499Z,100303.00
2023-02-26T08:19:06.503Z,100318.00
2023-02-26T08:21:33.916Z,100318.00
2023-02-26T08:24:01.306Z,100331.00
2023-02-26T08:26:28.864Z,100316.00
2023-02-26T08:28:56.179Z,100333.00
2023-02-26T08:31:23.548Z,100337.00
2023-02-26T08:33:50.928Z,100341.00
2023-02-26T08:36:18.804Z,100347.00
2023-02-26T08:38:46.044Z,100349.00
2023-02-26T08:41:13.369Z,100345.00
2023-02-26T08:43:41.406Z,100362.00
2023-02-26T08:46:08.690Z,100355.00
2023-02-26T08:48:36.101Z,100367.00
2023-02-26T08:51:03.469Z,100370.00
2023-02-26T08:53:31.348Z,100367.00
2023-02-26T08:55:58.625Z,100383.00
2023-02-26T08:58:25.833Z,100379.00
2023-02-26T09:00:56.508Z,100388.00
2023-02-26T09:03:23.813Z,100391.00
2023-02-26T09:05:51.659Z,100382.00
2023-02-26T09:08:19.849Z,100401.00
2023-02-26T09:10:48.102Z,100398.00
2023-02-26T09:13:15.463Z,100404.00
2023-02-26T09:15:43.064Z,100407.00
2023-02-26T09:18:14.685Z,100410.00
2023-02-26T09:20:42.332Z,100407.00
2023-02-26T09:23:09.675Z,100409.00
2023-02-26T09:25:36.995Z,100415.00
2023-02-26T09:28:05.353Z,100428.00
2023-02-26T09:30:33.123Z,100424.00
2023-02-26T09:33:00.382Z,100434.00
2023-02-26T09:35:27.669Z,100435.00
2023-02-26T09:37:54.927Z,100436.00
2023-02-26T09:40:31.879Z,100440.00
2023-02-26T09:43:13.343Z,100445.00
2023-02-26T09:45:44.702Z,100448.00
2023-02-26T09:48:15.061Z,100448.00
2023-02-26T09:50:46.554Z,100460.00
2023-02-26T09:53:18.834Z,100453.00
2023-02-26T09:55:49.449Z,100462.00
2023-02-26T09:58:24.787Z,100460.00
2023-02-26T10:01:00.059Z,100454.00
2023-02-26T10:03:34.276Z,100464.00
2023-02-26T10:06:18.710Z,100462.00
2023-02-26T10:08:58.595Z,100468.00
2023-02-26T10:11:30.265Z,100474.00
2023-02-26T10:14:03.653Z,100470.00
2023-02-26T10:16:37.400Z,100474.00
2023-02-26T10:19:08.108Z,100485.00
2023-02-26T10:21:41.621Z,100489.00
2023-02-26T10:24:14.713Z,100492.00
2023-02-26T10:26:45.547Z,100498.00
2023-02-26T10:29:23.179Z,100496.00
2023-02-26T10:32:02.827Z,100502.00
2023-02-26T10:34:35.524Z,100510.00
2023-02-26T10:37:09.774Z,100507.00
2023-02-26T10:39:43.986Z,100517.00
2023-02-26T10:42:17.093Z,100512.00
2023-02-26T10:44:54.783Z,100519.00
2023-02-26T10:47:31.524Z,100515.00
2023-02-26T10:50:04.093Z,100521.00
2023-02-26T10:52:33.729Z,100519.00
2023-02-26T10:55:24.135Z,100522.00
2023-02-26T10:58:02.998Z,100531.00
2023-02-26T11:00:31.609Z,100532.00
2023-02-26T11:02:59.857Z,100535.00
2023-02-26T11:05:29.490Z,100537.00
2023-02-26T11:08:00.249Z,100523.00
2023-02-26T11:10:38.885Z,100531.00
2023-02-26T11:13:06.158Z,100534.00
2023-02-26T11:15:34.083Z,100538.00
2023-02-26T11:18:02.119Z,100532.00
2023-02-26T11:20:37.078Z,100547.00
2023-02-26T11:23:07.602Z,100544.00
2023-02-26T11:25:36.635Z,100535.00
2023-02-26T11:28:06.574Z,100543.00
2023-02-26T11:30:37.836Z,100538.00
2023-02-26T11:33:16.141Z,100535.00
2023-02-26T11:36:08.328Z,100537.00
2023-02-26T11:38:37.889Z,100538.00
2023-02-26T11:41:05.938Z,100547.00
2023-02-26T11:43:44.027Z,100549.00
2023-02-26T11:46:15.473Z,100547.00
2023-02-26T11:48:48.049Z,100551.00
2023-02-26T11:54:29.762Z,100556.00
2023-02-26T11:57:05.386Z,100556.00
2023-02-26T11:59:34.029Z,100552.00
2023-02-26T12:02:11.711Z,100551.00
2023-02-26T12:04:42.489Z,100548.00
2023-02-26T12:07:13.704Z,100548.00
2023-02-26T12:09:41.343Z,100564.00
2023-02-26T12:12:18.343Z,100551.00
2023-02-26T12:15:01.179Z,100560.00
2023-02-26T12:17:38.047Z,100562.00
2023-02-26T12:20:18.545Z,100561.00
2023-02-26T12:22:54.589Z,100572.00
2023-02-26T12:25:39.503Z,100563.00
2023-02-26T12:28:33.929Z,100566.00
2023-02-26T12:31:21.951Z,100569.00
2023-02-26T12:33:59.711Z,100564.00
2023-02-26T12:36:48.345Z,100570.00
2023-02-26T12:39:41.560Z,100571.00
2023-02-26T12:42:18.606Z,100566.00
2023-02-26T12:45:12.733Z,100577.00
2023-02-26T12:47:52.741Z,100583.00
2023-02-26T12:50:34.699Z,100581.00
2023-02-26T12:53:42.509Z,100590.00
2023-02-26T12:56:28.986Z,100594.00
2023-02-26T12:59:12.988Z,100588.00
2023-02-26T13:02:01.292Z,100593.00
2023-02-26T13:05:13.098Z,100604.00
2023-02-26T13:08:00.600Z,100596.00
2023-02-26T13:10:37.204Z,100606.00
2023-02-26T13:13:25.594Z,100603.00
2023-02-26T13:16:15.355Z,100605.00
2023-02-26T13:18:49.552Z,100601.00
2023-02-26T13:21:22.354Z,100611.00
2023-02-26T13:23:54.451Z,100602.00
2023-02-26T13:26:24.503Z,100606.00
2023-02-26T13:28:55.993Z,100614.00
2023-02-26T13:31:29.839Z,100614.00
2023-02-26T13:34:02.326Z,100615.00
2023-02-26T13:36:30.704Z,100630.00
2023-02-26T13:39:12.303Z,100628.00
2023-02-26T13:41:48.300Z,100628.00
2023-02-26T13:44:27.706Z,100624.00
2023-02-26T13:47:30.825Z,100619.00
2023-02-26T13:50:12.630Z,100618.00
2023-02-26T13:52:51.881Z,100628.00
2023-02-26T13:55:40.369Z,100625.00
2023-02-26T13:58:28.039Z,100625.00
2023-02-26T14:01:03.750Z,100622.00
2023-02-26T14:03:33.817Z,100629.00
2023-02-26T14:06:24.823Z,100626.00
2023-02-26T14:08:54.888Z,100632.00
2023-02-26T14:11:43.204Z,100630.00
2023-02-26T14:14:24.635Z,100637.00
2023-02-26T14:17:17.908Z,100630.00
2023-02-26T14:20:01.003Z,100627.00
2023-02-26T14:22:35.884Z,100629.00
2023-02-26T14:25:17.181Z,100623.00
2023-02-26T14:27:47.060Z,100623.00
2023-02-26T14:30:26.906Z,100625.00
2023-02-26T14:33:06.987Z,100636.00
2023-02-26T14:35:39.271Z,100625.00
2023-02-26T14:38:11.086Z,100640.00
2023-02-26T14:40:44.608Z,100646.00
2023-02-26T14:43:20.905Z,100640.00
2023-02-26T14:45:50.151Z,100645.00
2023-02-26T14:48:21.643Z,100645.00
2023-02-26T14:51:04.533Z,100640.00
2023-02-26T14:54:13.229Z,100648.00
2023-02-26T14:56:52.125Z,100652.00
2023-02-26T14:59:51.296Z,100652.00
2023-02-26T15:02:27.410Z,100656.00
2023-02-26T15:05:26.030Z,100658.00
2023-02-26T15:08:12.353Z,100662.00
2023-02-26T15:10:54.813Z,100655.00
2023-02-26T15:13:51.583Z,100659.00
2023-02-26T15:16:33.328Z,100661.00
2023-02-26T15:19:17.242Z,100671.00
2023-02-26T15:21:58.764Z,100662.00
2023-02-26T15:24:29.192Z,100665.00
2023-02-26T15:27:01.190Z,100662.00
2023-02-26T15:29:31.073Z,100667.00
2023-02-26T15:32:05.345Z,100665.00
2023-02-26T15:34:33.361Z,100662.00
2023-02-26T15:37:01.919Z,100668.00
2023-02-26T15:39:29.195Z,100677.00
2023-02-26T15:41:56.986Z,100681.00
2023-02-26T15:44:27.888Z,100672.00
2023-02-26T15:46:59.594Z,100677.00
2023-02-26T15:49:29.786Z,100678.00
2023-02-26T15:51:58.908Z,100685.00
2023-02-26T15:54:41.883Z,100683.00
2023-02-26T15:57:10.916Z,100687.00
2023-02-26T15:59:42.871Z,100685.00
2023-02-26T16:02:12.817Z,100690.00
2023-02-26T16:04:42.145Z,100698.00
2023-02-26T16:07:11.328Z,100689.00
2023-02-26T16:09:40.829Z,100698.00
2023-02-26T16:12:11.226Z,100687.00
2023-02-26T16:14:41.181Z,100695.00
2023-02-26T16:17:14.258Z,100697.00
2023-02-26T16:19:44.492Z,100700.00
2023-02-26T16:22:20.826Z,100708.00
2023-02-26T16:24:52.393Z,100712.00
2023-02-26T16:27:20.645Z,100707.00
2023-02-26T16:29:52.190Z,100717.00
2023-02-26T16:32:20.475Z,100718.00
2023-02-26T16:34:53.166Z,100724.00
2023-02-26T16:37:25.196Z,100727.00
2023-02-26T16:39:55.862Z,100728.00
2023-02-26T16:42:35.909Z,100726.00
2023-02-26T16:45:18.938Z,100737.00
2023-02-26T16:47:50.075Z,100742.00
2023-02-26T16:50:20.662Z,100747.00
2023-02-26T16:52:56.366Z,100746.00
2023-02-26T16:55:26.257Z,100749.00
2023-02-26T16:57:57.147Z,100755.00
2023-02-26T17:00:30.222Z,100764.00
2023-02-26T17:03:00.170Z,100766.00
2023-02-26T17:05:31.322Z,100770.00
2023-02-26T17:08:07.984Z,100765.00
2023-02-26T17:10:39.544Z,100773.00
2023-02-26T17:13:16.328Z,100780.00
2023-02-26T17:15:46.191Z,100776.00
2023-02-26T17:18:13.875Z,100783.00
2023-02-26T17:20:42.503Z,100790.00
2023-02-26T17:23:11.542Z,100783.00
2023-02-26T17:25:41.157Z,100787.00
2023-02-26T17:28:10.318Z,100787.00
2023-02-26T17:30:37.669Z,100797.00
2023-02-26T17:33:07.130Z,100790.00
2023-02-26T17:35:34.587Z,100801.00
2023-02-26T17:38:03.860Z,100800.00
2023-02-26T17:40:35.700Z,100798.00
2023-02-26T17:43:03.995Z,100808.00
2023-02-26T17:45:32.396Z,100809.00
2023-02-26T17:48:00.004Z,100800.00
2023-02-26T17:50:39.837Z,100814.00
2023-02-26T17:53:08.809Z,100816.00
2023-02-26T17:55:38.623Z,100818.00
2023-02-26T17:58:07.403Z,100822.00
2023-02-26T18:00:39.880Z,100830.00
2023-02-26T18:03:08.456Z,100831.00
2023-02-26T18:05:38.371Z,100837.00
2023-02-26T18:08:07.080Z,100844.00
2023-02-26T18:10:34.469Z,100853.00
2023-02-26T18:13:02.762Z,100860.00
2023-02-26T18:15:30.177Z,100852.00
2023-02-26T18:17:58.219Z,100864.00
2023-02-26T18:20:26.609Z,100867.00
2023-02-26T18:22:53.843Z,100864.00
2023-02-26T18:25:22.554Z,100870.00
2023-02-26T18:27:54.143Z,100880.00
2023-02-26T18:30:27.387Z,100866.00
2023-02-26T18:32:55.063Z,100880.00
2023-02-26T18:35:22.926Z,100879.00
2023-02-26T18:37:52.377Z,100885.00
2023-02-26T18:40:22.830Z,100877.00
2023-02-26T18:42:50.633Z,100881.00
2023-02-26T18:45:19.371Z,100893.00
2023-02-26T18:47:47.847Z,100890.00
2023-02-26T18:50:16.927Z,100897.00
2023-02-26T18:52:44.609Z,100905.00
2023-02-26T18:55:12.165Z,100899.00
2023-02-26T18:57:41.780Z,100904.00
2023-02-26T19:00:13.189Z,100909.00
2023-02-26T19:02:41.134Z,100905.00
2023-02-26T19:05:09.345Z,100909.00
2023-02-26T19:07:36.893Z,100914.00
2023-02-26T19:10:04.616Z,100923.00
2023-02-26T19:12:32.038Z,100932.00
2023-02-26T19:14:59.990Z,100938.00
2023-02-26T19:17:27.524Z,100939.00
2023-02-26T19:19:54.784Z,100946.00
2023-02-26T19:22:22.412Z,100937.00
2023-02-26T19:24:49.762Z,100940.00
2023-02-26T19:27:17.415Z,100946.00
2023-02-26T19:29:44.723Z,100944.00
2023-02-26T19:32:13.423Z,100940.00
2023-02-26T19:34:40.772Z,100950.00
2023-02-26T19:37:09.955Z,100960.00
2023-02-26T19:39:37.420Z,100961.00
2023-02-26T19:42:05.091Z,100960.00
2023-02-26T19:44:32.448Z,100973.00
2023-02-26T19:46:59.972Z,100972.00
2023-02-26T19:49:28.206Z,100975.00
2023-02-26T19:51:55.502Z,100978.00
2023-02-26T19:54:22.863Z,100983.00
2023-02-26T19:56:50.489Z,100990.00
2023-02-26T19:59:18.445Z,100984.00
2023-02-26T20:01:48.553Z,100988.00
2023-02-26T20:04:16.416Z,100987.00
2023-02-26T20:06:44.598Z,100989.00
2023-02-26T20:09:13.493Z,101004.00
2023-02-26T20:11:41.051Z,100996.00
2023-02-26T20:14:08.586Z,101007.00
2023-02-26T20:16:35.923Z,101012.00
2023-02-26T20:19:03.268Z,101015.00
2023-02-26T20:21:30.611Z,101004.00
2023-02-26T20:23:58.667Z,101009.00
2023-02-26T20:26:25.948Z,101018.00
2023-02-26T20:28:53.433Z,101008.00
2023-02-26T20:31:20.779Z,101018.00
2023-02-26T20:33:48.206Z,101031.00
2023-02-26T20:36:15.707Z,101015.00
2023-02-26T20:38:43.065Z,101029.00
2023-02-26T20:41:11.334Z,101029.00
2023-02-26T20:43:38.634Z,101028.00
2023-02-26T20:46:06.091Z,101029.00
2023-02-26T20:48:33.989Z,101029.00
2023-02-26T20:51:05.172Z,101028.00
2023-02-26T20:53:33.022Z,101041.00
2023-02-26T20:56:00.423Z,101031.00
2023-02-26T20:58:28.564Z,101034.00
2023-02-26T21:00:57.921Z,101024.00
2023-02-26T21:03:25.640Z,101025.00
2023-02-26T21:05:53.091Z,101043.00
2023-02-26T21:08:21.091Z,101037.00
2023-02-26T21:10:50.694Z,101026.00
2023-02-26T21:13:18.522Z,101039.00
2023-02-26T21:15:46.549Z,101041.00
2023-02-26T21:18:13.822Z,101050.00
2023-02-26T21:20:41.115Z,101051.00
2023-02-26T21:23:08.438Z,101053.00
2023-02-26T21:25:35.818Z,101044.00
2023-02-26T21:28:03.262Z,101054.00
2023-02-26T21:30:30.635Z,101057.00
2023-02-26T21:32:58.657Z,101064.00
2023-02-26T21:35:25.953Z,101069.00
2023-02-26T21:37:53.925Z,101065.00
2023-02-26T21:40:22.051Z,101067.00
2023-02-26T21:42:49.647Z,101069.00
2023-02-26T21:45:17.307Z,101079.00
2023-02-26T21:47:44.797Z,101077.00
2023-02-26T21:50:13.069Z,101069.00
2023-02-26T21:52:40.360Z,101080.00
2023-02-26T21:55:08.237Z,101078.00
2023-02-26T21:57:35.569Z,101080.00
2023-02-26T22:00:05.163Z,101076.00
2023-02-26T22:02:32.511Z,101074.00
2023-02-26T22:04:59.828Z,101075.00
2023-02-26T22:07:27.881Z,101076.00
2023-02-26T22:09:55.240Z,101062.00
2023-02-26T22:12:22.731Z,101078.00
2023-02-26T22:14:50.109Z,101067.00
2023-02-26T22:17:17.456Z,101077.00
2023-02-26T22:19:44.762Z,101077.00
2023-02-26T22:22:12.149Z,101078.00
2023-02-26T22:24:40.649Z,101087.00
2023-02-26T22:27:07.974Z,101085.00
2023-02-26T22:29:35.348Z,101088.00
2023-02-26T22:32:02.812Z,101085.00
2023-02-26T22:34:32.885Z,101094.00
2023-02-26T22:37:00.426Z,101099.00
2023-02-26T22:39:28.116Z,101103.00
2023-02-26T22:41:56.133Z,101103.00
2023-02-26T22:44:23.755Z,101108.00
2023-02-26T22:46:51.356Z,101104.00
2023-02-26T22:49:19.711Z,101110.00
2023-02-26T22:51:47.159Z,101107.00
2023-02-26T22:54:14.730Z,101109.00
2023-02-26T22:56:42.038Z,101099.00
2023-02-26T22:59:10.044Z,101100.00
2023-02-26T23:01:38.178Z,101108.00
2023-02-26T23:04:05.949Z,101109.00
2023-02-26T23:06:35.848Z,101111.00
2023-02-26T23:09:03.346Z,101113.00
2023-02-26T23:11:30.724Z,101110.00
2023-02-26T23:13:58.139Z,101112.00
2023-02-26T23:16:26.351Z,101112.00
2023-02-26T23:18:53.660Z,101108.00
2023-02-26T23:21:20.974Z,101105.00
2023-02-26T23:23:48.282Z,101109.00
2023-02-26T23:26:15.617Z,101118.00
2023-02-26T23:28:43.008Z,101120.00
2023-02-26T23:31:10.446Z,101116.00
2023-02-26T23:33:38.496Z,101126.00
2023-02-26T23:36:06.678Z,101125.00
2023-02-26T23:38:33.975Z,101124.00
2023-02-26T23:41:01.287Z,101127.00
2023-02-26T23:43:28.880Z,101134.00
2023-02-26T23:45:56.172Z,101126.00
2023-02-26T23:48:24.926Z,101129.00
2023-02-26T23:50:53.587Z,101133.00
2023-02-26T23:53:21.384Z,101135.00
2023-02-26T23:55:51.049Z,101135.00
2023-02-26T23:58:18.372Z,101140.00
